Pagina principale
METAR-TAF:

METAR-TAF

Aeroporti :

Kélibia, Tunisia

latitudine: 36-51N, longitudine: 011-05E, altezza: 29 m

Osservazione

Il bollettino è stato emesso 15 minuti fa, alle 03:00 UTC
Vento 3 kt da direzioni variabili
Temperature 11°C
Umidità 94%
Pressione 1027 hPa

METAR: DTTL 240300Z AUTO VRB03KT NCD 11/10 Q1027

Ora: 04:15 (03:15 UTC)


TAF: mancante

Osservazioni e previsioni meteorologiche di più di 4000 aeroporti (messaggi METAR e TAF).

Le stazioni disponibili sono rappresentate dai dischi gialli e rossi sulla carta.

Puntare il mouse per vedere il nome della stazione.

Clicca sopra per visualizzare le osservazioni e previsioni meteorologiche.

Per cambiare la mappa : fare clic sui pulsanti verdi con una croce nera per ingrandire, il pulsante verde con un trattino per diminuire, o sulla freccia verde per le mappe adiacenti.


METAR-TAF: